Time;durP1;ratioP1;P1;durP2;ratioP2;P2;SDS_P1;SDS_P2;PMS_P1;PMS_P2;Temp;Humidity;BMP_temperature;BMP_pressure;BME280_temperature;BME280_humidity;BME280_pressure;Samples;Min_cycle;Max_cycle;Signal;HPM_P1;HPM_P2
2024/04/11 00:00:05;;;;;;;27.50;25.43;;;;;;;;;;5532057;25;20526;-76
2024/04/11 00:02:34;;;;;;;27.90;25.67;;;;;;;;;;5495678;25;20518;-76
2024/04/11 00:05:00;;;;;;;28.17;26.23;;;;;;;;;;5520662;26;20522;-76
2024/04/11 00:07:29;;;;;;;28.17;25.97;;;;;;;;;;5527324;25;20423;-76
2024/04/11 00:09:55;;;;;;;27.10;25.17;;;;;;;;;;5526769;25;20514;-76
2024/04/11 00:12:23;;;;;;;25.83;24.20;;;;;;;;;;5527511;25;20483;-76
2024/04/11 00:14:50;;;;;;;27.23;25.40;;;;;;;;;;5527318;25;20495;-76
2024/04/11 00:17:22;;;;;;;28.30;26.10;;;;;;;;;;5530306;25;20497;-75
2024/04/11 00:19:48;;;;;;;27.37;25.57;;;;;;;;;;5525703;25;20445;-76
2024/04/11 00:22:17;;;;;;;28.20;26.30;;;;;;;;;;5526862;26;20506;-77
2024/04/11 00:24:43;;;;;;;27.50;25.70;;;;;;;;;;5525851;25;20466;-75
2024/04/11 00:27:12;;;;;;;28.37;25.80;;;;;;;;;;5526523;25;20510;-74
2024/04/11 00:29:38;;;;;;;26.33;24.53;;;;;;;;;;5526564;25;20461;-76
2024/04/11 00:32:07;;;;;;;26.80;25.00;;;;;;;;;;5501481;26;20528;-75
2024/04/11 00:34:38;;;;;;;27.50;25.17;;;;;;;;;;5490128;26;20435;-75
2024/04/11 00:37:11;;;;;;;27.33;25.20;;;;;;;;;;5523611;25;20589;-75
2024/04/11 00:39:37;;;;;;;28.10;25.70;;;;;;;;;;5489594;26;20501;-75
2024/04/11 00:42:07;;;;;;;26.83;25.00;;;;;;;;;;5490320;26;20473;-75
2024/04/11 00:44:33;;;;;;;27.60;25.50;;;;;;;;;;5489984;26;20455;-75
2024/04/11 00:47:02;;;;;;;27.53;25.43;;;;;;;;;;5489440;26;20448;-74
2024/04/11 00:49:28;;;;;;;27.27;25.23;;;;;;;;;;5488848;26;20494;-75
2024/04/11 00:52:01;;;;;;;27.17;25.17;;;;;;;;;;5489879;26;21054;-75
2024/04/11 00:54:27;;;;;;;29.47;26.97;;;;;;;;;;5521123;25;20519;-75
2024/04/11 00:56:59;;;;;;;27.87;25.87;;;;;;;;;;5527007;25;20422;-75
2024/04/11 00:59:25;;;;;;;28.13;26.13;;;;;;;;;;5506995;25;20435;-76
2024/04/11 01:01:53;;;;;;;27.97;26.00;;;;;;;;;;5489010;26;20531;-75
2024/04/11 01:04:21;;;;;;;28.00;26.00;;;;;;;;;;5489598;26;20528;-74
2024/04/11 01:09:35;;;;;;;25.97;24.27;;;;;;;;;;5488495;26;20454;-76
2024/04/11 01:12:01;;;;;;;27.57;25.33;;;;;;;;;;5488108;26;20826;-76
2024/04/11 01:14:31;;;;;;;27.27;25.27;;;;;;;;;;5489569;26;21002;-76
2024/04/11 01:16:57;;;;;;;28.13;26.10;;;;;;;;;;5489467;26;20420;-75
2024/04/11 01:19:26;;;;;;;26.60;24.93;;;;;;;;;;5488110;26;20438;-75
2024/04/11 01:25:01;;;;;;;27.70;25.67;;;;;;;;;;5506767;26;21205;-76
2024/04/11 01:27:29;;;;;;;27.93;25.43;;;;;;;;;;5489191;26;20447;-75
2024/04/11 01:29:58;;;;;;;28.73;26.43;;;;;;;;;;5488239;26;20454;-75
2024/04/11 01:32:24;;;;;;;27.83;25.93;;;;;;;;;;5499070;26;20469;-77
2024/04/11 01:34:56;;;;;;;26.80;25.07;;;;;;;;;;5516754;25;20549;-75
2024/04/11 01:37:22;;;;;;;27.00;25.00;;;;;;;;;;5489207;26;20436;-75
2024/04/11 01:39:51;;;;;;;27.50;25.27;;;;;;;;;;5503952;26;20473;-75
2024/04/11 01:42:20;;;;;;;27.77;25.87;;;;;;;;;;5524931;25;20529;-75
2024/04/11 01:44:50;;;;;;;27.23;25.00;;;;;;;;;;5525482;25;20453;-76
2024/04/11 01:47:17;;;;;;;27.73;25.83;;;;;;;;;;5497126;25;20539;-77
2024/04/11 01:49:45;;;;;;;27.10;25.27;;;;;;;;;;5489330;26;20499;-75
2024/04/11 01:52:12;;;;;;;26.67;24.97;;;;;;;;;;5498635;25;21177;-76
2024/04/11 01:54:41;;;;;;;27.00;25.20;;;;;;;;;;5497529;25;20498;-75
2024/04/11 01:57:09;;;;;;;25.77;24.07;;;;;;;;;;5487902;26;20525;-76
2024/04/11 01:59:41;;;;;;;29.43;26.70;;;;;;;;;;5486628;26;20867;-75
2024/04/11 02:02:08;;;;;;;27.13;25.33;;;;;;;;;;5488218;26;20472;-76
2024/04/11 02:04:37;;;;;;;26.03;24.13;;;;;;;;;;5488072;26;20490;-75
2024/04/11 02:07:04;;;;;;;25.80;24.00;;;;;;;;;;5492979;26;20449;-74
2024/04/11 02:09:34;;;;;;;26.17;24.40;;;;;;;;;;5500367;25;20466;-75
2024/04/11 02:12:00;;;;;;;26.70;24.80;;;;;;;;;;5486674;26;20610;-74
2024/04/11 02:14:29;;;;;;;26.50;24.80;;;;;;;;;;5488215;26;20496;-75
2024/04/11 02:16:59;;;;;;;26.70;24.90;;;;;;;;;;5518654;26;20470;-75
2024/04/11 02:19:28;;;;;;;26.87;24.70;;;;;;;;;;5498107;25;20455;-75
2024/04/11 02:21:54;;;;;;;27.02;25.02;;;;;;;;;;5488977;25;20458;-75
2024/04/11 02:24:23;;;;;;;26.80;24.87;;;;;;;;;;5525999;25;20450;-75
2024/04/11 02:26:49;;;;;;;26.73;24.93;;;;;;;;;;5505913;25;20470;-74
2024/04/11 02:29:18;;;;;;;25.63;23.80;;;;;;;;;;5490440;26;20787;-75
2024/04/11 02:31:46;;;;;;;27.70;25.17;;;;;;;;;;5485033;26;20477;-76
2024/04/11 02:34:18;;;;;;;24.67;23.07;;;;;;;;;;5506551;26;20465;-75
2024/04/11 02:36:44;;;;;;;25.27;23.30;;;;;;;;;;5504914;25;20529;-74
2024/04/11 02:39:16;;;;;;;25.77;23.98;;;;;;;;;;5497683;25;20447;-74
2024/04/11 02:41:43;;;;;;;25.37;23.57;;;;;;;;;;5501693;26;20240;-76
2024/04/11 02:44:12;;;;;;;25.90;24.00;;;;;;;;;;5509232;25;20467;-75
2024/04/11 02:46:39;;;;;;;26.37;24.30;;;;;;;;;;5523119;25;20429;-76
2024/04/11 02:49:08;;;;;;;25.57;23.77;;;;;;;;;;5525265;25;20574;-76
2024/04/11 02:51:37;;;;;;;25.07;23.37;;;;;;;;;;5498508;25;20579;-75
2024/04/11 02:54:07;;;;;;;26.57;24.40;;;;;;;;;;5489446;26;20463;-76
2024/04/11 02:56:33;;;;;;;27.20;24.70;;;;;;;;;;5511539;25;20540;-75
2024/04/11 02:59:04;;;;;;;25.02;23.40;;;;;;;;;;5492747;25;20965;-75
2024/04/11 03:01:31;;;;;;;26.30;24.17;;;;;;;;;;5488796;26;20242;-75
2024/04/11 03:04:01;;;;;;;24.92;23.10;;;;;;;;;;5492909;26;20974;-75
2024/04/11 03:06:28;;;;;;;25.20;23.60;;;;;;;;;;5489558;25;20284;-77
2024/04/11 03:09:00;;;;;;;25.10;23.50;;;;;;;;;;5488729;26;20462;-75
2024/04/11 03:11:27;;;;;;;24.87;23.17;;;;;;;;;;5487164;26;20491;-77
2024/04/11 03:13:57;;;;;;;25.93;23.93;;;;;;;;;;5488906;26;20443;-75
2024/04/11 03:16:24;;;;;;;25.30;23.60;;;;;;;;;;5489026;26;20958;-75
2024/04/11 03:18:55;;;;;;;24.83;23.30;;;;;;;;;;5487974;26;20986;-75
2024/04/11 03:21:21;;;;;;;24.97;23.37;;;;;;;;;;5504134;26;20832;-76
2024/04/11 03:23:50;;;;;;;24.60;23.00;;;;;;;;;;5487888;26;20473;-76
2024/04/11 03:26:19;;;;;;;24.03;22.40;;;;;;;;;;5488596;26;20461;-75
2024/04/11 03:28:48;;;;;;;23.90;22.37;;;;;;;;;;5488086;26;20466;-76
2024/04/11 03:31:17;;;;;;;24.30;22.70;;;;;;;;;;5489470;26;20522;-76
2024/04/11 03:33:47;;;;;;;25.87;23.80;;;;;;;;;;5489549;26;20471;-75
2024/04/11 03:36:13;;;;;;;25.90;24.30;;;;;;;;;;5491635;26;20993;-76
2024/04/11 03:38:42;;;;;;;24.23;22.70;;;;;;;;;;5524422;25;20426;-75
2024/04/11 03:41:08;;;;;;;24.53;23.03;;;;;;;;;;5524253;25;20554;-75
2024/04/11 03:43:41;;;;;;;25.00;23.10;;;;;;;;;;5523795;25;20450;-74
2024/04/11 03:46:10;;;;;;;24.40;22.70;;;;;;;;;;5490452;25;20495;-75
2024/04/11 03:48:39;;;;;;;25.20;23.30;;;;;;;;;;5522275;25;20524;-76
2024/04/11 03:51:10;;;;;;;23.10;21.70;;;;;;;;;;5522770;25;20472;-75
2024/04/11 03:53:39;;;;;;;24.10;22.40;;;;;;;;;;5525385;26;20535;-76
2024/04/11 03:56:07;;;;;;;22.17;21.03;;;;;;;;;;5494245;25;20773;-75
2024/04/11 03:58:37;;;;;;;22.63;21.33;;;;;;;;;;5493147;26;20571;-76
2024/04/11 04:01:06;;;;;;;24.27;22.63;;;;;;;;;;5495442;25;20566;-75
2024/04/11 04:03:35;;;;;;;24.10;22.35;;;;;;;;;;5495077;26;20501;-76
2024/04/11 04:06:01;;;;;;;24.00;22.50;;;;;;;;;;5510673;25;20554;-76
2024/04/11 04:08:29;;;;;;;23.30;21.80;;;;;;;;;;5510930;25;20470;-77
2024/04/11 04:10:55;;;;;;;23.90;22.30;;;;;;;;;;5487476;26;20488;-75
2024/04/11 04:13:26;;;;;;;24.00;22.07;;;;;;;;;;5507790;25;20482;-76
2024/04/11 04:15:53;;;;;;;23.87;21.73;;;;;;;;;;5508371;25;20476;-77
2024/04/11 04:18:25;;;;;;;22.00;20.70;;;;;;;;;;5514680;25;20595;-75
2024/04/11 04:20:54;;;;;;;22.27;21.07;;;;;;;;;;5507547;25;20985;-76
2024/04/11 04:23:23;;;;;;;22.27;20.97;;;;;;;;;;5500925;26;20818;-75
2024/04/11 04:25:54;;;;;;;22.80;21.30;;;;;;;;;;5494629;26;20785;-75
2024/04/11 04:28:23;;;;;;;23.43;21.67;;;;;;;;;;5494201;25;20463;-75
2024/04/11 04:30:49;;;;;;;23.53;21.83;;;;;;;;;;5486685;26;21286;-73
2024/04/11 04:33:18;;;;;;;22.53;21.33;;;;;;;;;;5487008;26;20974;-74
2024/04/11 04:35:47;;;;;;;21.87;20.47;;;;;;;;;;5486402;26;20468;-74
2024/04/11 04:38:16;;;;;;;22.33;20.93;;;;;;;;;;5485705;26;20446;-72
2024/04/11 04:40:42;;;;;;;21.63;20.43;;;;;;;;;;5486540;26;20522;-73
2024/04/11 04:43:11;;;;;;;21.10;19.90;;;;;;;;;;5486459;26;20437;-73
2024/04/11 04:45:37;;;;;;;22.17;20.63;;;;;;;;;;5486972;26;20439;-75
2024/04/11 04:48:11;;;;;;;22.43;20.93;;;;;;;;;;5485624;26;20593;-75
2024/04/11 04:50:39;;;;;;;22.17;20.60;;;;;;;;;;5486666;26;20917;-74
2024/04/11 04:53:10;;;;;;;21.90;20.60;;;;;;;;;;5486216;26;20439;-73
2024/04/11 04:55:36;;;;;;;22.50;20.77;;;;;;;;;;5487185;26;20441;-73
2024/04/11 04:58:07;;;;;;;21.03;19.67;;;;;;;;;;5490340;26;20462;-74
2024/04/11 05:00:33;;;;;;;21.93;20.53;;;;;;;;;;5496439;26;20474;-74
2024/04/11 05:03:08;;;;;;;22.80;21.40;;;;;;;;;;5487075;26;20467;-75
2024/04/11 05:05:35;;;;;;;22.13;20.53;;;;;;;;;;5486789;26;21013;-73
2024/04/11 05:08:07;;;;;;;25.27;23.43;;;;;;;;;;5488214;26;20795;-74
2024/04/11 05:10:37;;;;;;;21.00;19.70;;;;;;;;;;5488346;26;20453;-73
2024/04/11 05:13:09;;;;;;;20.93;19.73;;;;;;;;;;5487468;26;20835;-73
2024/04/11 05:15:35;;;;;;;19.97;18.93;;;;;;;;;;5486651;26;20867;-74
2024/04/11 05:18:04;;;;;;;21.37;19.70;;;;;;;;;;5486074;26;20842;-74
2024/04/11 05:20:32;;;;;;;23.20;21.30;;;;;;;;;;5486968;26;20482;-74
2024/04/11 05:23:01;;;;;;;21.63;20.33;;;;;;;;;;5486128;26;20478;-72
2024/04/11 05:25:29;;;;;;;21.40;20.20;;;;;;;;;;5485765;26;20479;-73
2024/04/11 05:28:02;;;;;;;20.73;19.53;;;;;;;;;;5486065;26;20473;-74
2024/04/11 05:30:28;;;;;;;21.03;19.73;;;;;;;;;;5485678;26;20546;-74
2024/04/11 05:32:57;;;;;;;20.30;19.10;;;;;;;;;;5486183;26;20498;-73
2024/04/11 05:35:23;;;;;;;21.40;20.03;;;;;;;;;;5485882;26;21474;-74
2024/04/11 05:37:53;;;;;;;20.00;18.90;;;;;;;;;;5485852;26;20516;-74
2024/04/11 05:40:21;;;;;;;20.63;19.43;;;;;;;;;;5485110;26;20532;-74
2024/04/11 05:42:50;;;;;;;21.27;20.07;;;;;;;;;;5485722;26;20519;-74
2024/04/11 05:45:19;;;;;;;20.53;19.17;;;;;;;;;;5485568;26;20442;-73
2024/04/11 05:47:51;;;;;;;20.47;19.27;;;;;;;;;;5485638;26;20441;-74
2024/04/11 05:50:20;;;;;;;20.23;19.03;;;;;;;;;;5494342;26;20489;-74
2024/04/11 05:52:47;;;;;;;20.80;19.50;;;;;;;;;;5497479;25;20459;-74
2024/04/11 05:55:16;;;;;;;20.37;19.00;;;;;;;;;;5522517;25;20443;-75
2024/04/11 05:57:43;;;;;;;20.60;19.27;;;;;;;;;;5522735;25;20809;-74
2024/04/11 06:00:13;;;;;;;19.60;18.60;;;;;;;;;;5490263;25;20439;-74
2024/04/11 06:02:41;;;;;;;20.43;18.80;;;;;;;;;;5484886;26;20465;-75
2024/04/11 06:05:10;;;;;;;20.50;19.30;;;;;;;;;;5490789;26;20994;-74
2024/04/11 06:07:39;;;;;;;20.97;19.67;;;;;;;;;;5484650;26;20436;-73
2024/04/11 06:10:11;;;;;;;20.37;19.00;;;;;;;;;;5484517;26;20445;-75
2024/04/11 06:12:38;;;;;;;20.43;19.20;;;;;;;;;;5486202;26;20547;-74
2024/04/11 06:15:07;;;;;;;20.63;19.27;;;;;;;;;;5492520;26;20496;-73
2024/04/11 06:17:34;;;;;;;20.20;19.00;;;;;;;;;;5505233;25;20482;-74
2024/04/11 06:20:15;;;;;;;20.67;19.50;;;;;;;;;;5520201;25;20547;-74
2024/04/11 06:22:42;;;;;;;22.53;20.67;;;;;;;;;;5504409;25;20562;-74
2024/04/11 06:25:12;;;;;;;19.90;18.80;;;;;;;;;;5487284;26;21381;-73
2024/04/11 06:27:40;;;;;;;21.00;19.50;;;;;;;;;;5497800;26;20471;-75
2024/04/11 06:30:12;;;;;;;20.97;19.60;;;;;;;;;;5523121;25;20574;-74
2024/04/11 06:32:38;;;;;;;20.80;19.60;;;;;;;;;;5525236;25;20818;-73
2024/04/11 06:35:11;;;;;;;20.10;19.10;;;;;;;;;;5526066;25;20419;-73
2024/04/11 06:37:37;;;;;;;19.53;18.43;;;;;;;;;;5524978;25;20635;-75
2024/04/11 06:40:12;;;;;;;21.20;19.90;;;;;;;;;;5524394;25;20455;-73
2024/04/11 06:42:46;;;;;;;21.50;20.00;;;;;;;;;;5523991;25;20466;-74
2024/04/11 06:45:14;;;;;;;20.27;18.97;;;;;;;;;;5492572;26;20452;-74
2024/04/11 06:47:43;;;;;;;21.13;19.60;;;;;;;;;;5514630;25;20452;-74
2024/04/11 06:50:13;;;;;;;21.00;19.80;;;;;;;;;;5487263;26;20574;-74
2024/04/11 06:52:42;;;;;;;21.10;19.90;;;;;;;;;;5488316;26;20455;-75
2024/04/11 06:55:08;;;;;;;20.23;19.13;;;;;;;;;;5487755;26;20459;-75
2024/04/11 06:57:40;;;;;;;20.70;19.40;;;;;;;;;;5487589;26;20816;-75
2024/04/11 07:00:12;;;;;;;20.00;19.00;;;;;;;;;;5487838;26;21282;-75
2024/04/11 07:02:46;;;;;;;20.40;19.13;;;;;;;;;;5487988;26;20781;-73
2024/04/11 07:05:16;;;;;;;21.50;19.80;;;;;;;;;;5488013;26;20497;-75
2024/04/11 07:07:45;;;;;;;20.93;19.43;;;;;;;;;;5486538;26;20495;-73
2024/04/11 07:10:15;;;;;;;20.87;19.67;;;;;;;;;;5486983;26;20515;-74
2024/04/11 07:12:46;;;;;;;22.30;20.83;;;;;;;;;;5487115;26;20831;-74
2024/04/11 07:15:14;;;;;;;21.40;19.90;;;;;;;;;;5498810;26;20580;-74
2024/04/11 07:17:56;;;;;;;21.83;20.47;;;;;;;;;;5524302;25;20469;-75
2024/04/11 07:20:25;;;;;;;22.23;20.73;;;;;;;;;;5489366;25;20489;-73
2024/04/11 07:22:55;;;;;;;21.30;20.10;;;;;;;;;;5487429;26;20468;-73
2024/04/11 07:25:21;;;;;;;20.50;19.40;;;;;;;;;;5487321;26;20439;-75
2024/04/11 07:27:50;;;;;;;22.27;20.30;;;;;;;;;;5486544;26;20445;-74
2024/04/11 07:30:18;;;;;;;21.40;20.00;;;;;;;;;;5486839;26;20460;-75
2024/04/11 07:32:47;;;;;;;22.77;21.13;;;;;;;;;;5485560;26;20456;-75
2024/04/11 07:35:15;;;;;;;22.13;20.60;;;;;;;;;;5487031;26;20963;-73
2024/04/11 07:37:47;;;;;;;21.67;20.47;;;;;;;;;;5507866;25;20446;-73
2024/04/11 07:40:27;;;;;;;22.10;20.67;;;;;;;;;;5522876;25;20455;-74
2024/04/11 07:42:57;;;;;;;21.07;19.87;;;;;;;;;;5524180;25;20451;-74
2024/04/11 07:45:25;;;;;;;21.10;19.83;;;;;;;;;;5522942;25;20462;-74
2024/04/11 07:47:58;;;;;;;20.83;19.73;;;;;;;;;;5522329;25;20453;-75
2024/04/11 07:50:26;;;;;;;21.93;20.27;;;;;;;;;;5522910;25;20462;-74
2024/04/11 07:52:57;;;;;;;22.40;20.90;;;;;;;;;;5523389;25;20427;-74
2024/04/11 07:55:24;;;;;;;19.87;18.77;;;;;;;;;;5524229;25;20474;-74
2024/04/11 07:57:52;;;;;;;21.33;20.13;;;;;;;;;;5514116;25;20494;-73
2024/04/11 08:00:20;;;;;;;20.80;19.40;;;;;;;;;;5523019;25;20504;-75
2024/04/11 08:02:48;;;;;;;20.93;19.67;;;;;;;;;;5523116;25;20497;-73
2024/04/11 08:05:15;;;;;;;20.90;19.50;;;;;;;;;;5504337;25;20986;-72
2024/04/11 08:07:44;;;;;;;21.53;20.33;;;;;;;;;;5505783;25;20579;-75
2024/04/11 08:10:13;;;;;;;21.37;19.83;;;;;;;;;;5513606;25;20477;-76
2024/04/11 08:12:42;;;;;;;21.67;20.27;;;;;;;;;;5522823;25;20490;-73
2024/04/11 08:15:08;;;;;;;21.87;20.40;;;;;;;;;;5502688;25;20557;-73
2024/04/11 08:17:37;;;;;;;20.70;19.47;;;;;;;;;;5493838;26;20454;-76
2024/04/11 08:20:12;;;;;;;21.77;20.47;;;;;;;;;;5508527;25;20510;-80
2024/04/11 08:22:41;;;;;;;20.90;19.57;;;;;;;;;;5518605;25;21042;-79
2024/04/11 08:25:09;;;;;;;22.00;20.40;;;;;;;;;;5521555;25;20468;-78
2024/04/11 08:27:40;;;;;;;21.10;19.80;;;;;;;;;;5490378;26;20551;-81
2024/04/11 08:30:06;;;;;;;22.10;20.70;;;;;;;;;;5523253;26;20491;-80
2024/04/11 08:32:36;;;;;;;21.27;19.87;;;;;;;;;;5528015;25;20511;-80
2024/04/11 08:35:04;;;;;;;23.57;21.73;;;;;;;;;;5525833;25;20613;-82
2024/04/11 08:37:33;;;;;;;22.80;21.10;;;;;;;;;;5526819;26;20518;-77
2024/04/11 08:39:59;;;;;;;23.33;21.97;;;;;;;;;;5489574;26;20440;-79
2024/04/11 08:42:28;;;;;;;23.27;21.97;;;;;;;;;;5513654;25;20559;-80
2024/04/11 08:44:58;;;;;;;24.27;22.50;;;;;;;;;;5526673;25;20446;-81
2024/04/11 08:47:27;;;;;;;24.00;22.50;;;;;;;;;;5525821;25;20985;-80
2024/04/11 08:49:53;;;;;;;24.30;22.27;;;;;;;;;;5526011;25;20439;-78
2024/04/11 08:52:25;;;;;;;23.57;21.90;;;;;;;;;;5527304;25;20776;-79
2024/04/11 08:54:52;;;;;;;25.97;24.37;;;;;;;;;;5526573;26;20462;-78
2024/04/11 08:57:20;;;;;;;24.80;23.53;;;;;;;;;;5527376;26;20538;-80
2024/04/11 08:59:47;;;;;;;24.90;23.57;;;;;;;;;;5526918;25;20459;-80
2024/04/11 09:02:18;;;;;;;23.80;22.40;;;;;;;;;;5525970;25;20510;-80
2024/04/11 09:04:44;;;;;;;23.13;21.73;;;;;;;;;;5527454;26;20467;-80
2024/04/11 09:07:21;;;;;;;23.53;22.03;;;;;;;;;;5527266;26;20435;-80
2024/04/11 09:09:47;;;;;;;23.97;22.20;;;;;;;;;;5525880;25;20539;-80
2024/04/11 09:12:16;;;;;;;23.60;22.20;;;;;;;;;;5527059;25;20435;-80
2024/04/11 09:14:43;;;;;;;22.40;21.20;;;;;;;;;;5527281;25;20466;-80
2024/04/11 09:17:14;;;;;;;22.67;21.27;;;;;;;;;;5527076;26;20427;-80
2024/04/11 09:19:42;;;;;;;22.37;20.93;;;;;;;;;;5526784;25;20483;-79
2024/04/11 09:22:12;;;;;;;22.40;20.90;;;;;;;;;;5527160;25;20774;-80
2024/04/11 09:24:39;;;;;;;22.83;21.50;;;;;;;;;;5527096;25;21004;-79
2024/04/11 09:27:08;;;;;;;21.70;20.40;;;;;;;;;;5527016;25;20844;-79
2024/04/11 09:29:35;;;;;;;23.87;21.47;;;;;;;;;;5525780;25;20801;-81
2024/04/11 09:32:06;;;;;;;22.80;21.37;;;;;;;;;;5522986;25;20474;-75
2024/04/11 09:34:37;;;;;;;23.27;21.57;;;;;;;;;;5522528;25;20556;-73
2024/04/11 09:37:14;;;;;;;22.30;21.10;;;;;;;;;;5524642;25;20490;-80
2024/04/11 09:39:45;;;;;;;23.30;21.90;;;;;;;;;;5525259;25;20800;-81
2024/04/11 09:42:17;;;;;;;22.13;20.63;;;;;;;;;;5523183;25;20898;-79
2024/04/11 09:44:46;;;;;;;22.17;20.97;;;;;;;;;;5526629;26;21218;-81
2024/04/11 09:47:18;;;;;;;22.50;21.07;;;;;;;;;;5525805;26;20479;-82
2024/04/11 09:49:53;;;;;;;22.97;21.47;;;;;;;;;;5489944;26;20483;-78
2024/04/11 09:52:27;;;;;;;22.80;21.43;;;;;;;;;;5489386;26;20547;-80
2024/04/11 09:54:55;;;;;;;21.90;20.37;;;;;;;;;;5490756;26;20559;-81
2024/04/11 09:57:25;;;;;;;21.73;20.33;;;;;;;;;;5489565;26;20513;-81
2024/04/11 09:59:51;;;;;;;20.80;19.60;;;;;;;;;;5489845;26;20440;-81
2024/04/11 10:02:21;;;;;;;21.07;19.77;;;;;;;;;;5492731;26;20838;-82
2024/04/11 10:04:47;;;;;;;22.10;20.70;;;;;;;;;;5489785;26;20540;-82
2024/04/11 10:07:25;;;;;;;22.13;20.73;;;;;;;;;;5489911;26;20496;-80
2024/04/11 10:09:53;;;;;;;22.40;20.90;;;;;;;;;;5486374;26;20531;-75
2024/04/11 10:12:28;;;;;;;23.57;22.27;;;;;;;;;;5511828;25;21014;-75
2024/04/11 10:14:56;;;;;;;25.63;23.70;;;;;;;;;;5496118;25;20512;-74
2024/04/11 10:17:28;;;;;;;24.63;23.00;;;;;;;;;;5485891;26;20574;-77
2024/04/11 10:19:59;;;;;;;23.80;22.07;;;;;;;;;;5498923;25;20600;-74
2024/04/11 10:22:29;;;;;;;23.63;22.23;;;;;;;;;;5519708;25;20475;-76
2024/04/11 10:25:06;;;;;;;24.83;23.27;;;;;;;;;;5522303;25;20835;-75
2024/04/11 10:27:37;;;;;;;23.90;22.30;;;;;;;;;;5521118;25;20583;-74
2024/04/11 10:30:12;;;;;;;23.40;22.20;;;;;;;;;;5521218;25;20994;-74
2024/04/11 10:32:46;;;;;;;23.10;21.90;;;;;;;;;;5521253;25;20517;-74
2024/04/11 10:35:19;;;;;;;22.40;21.13;;;;;;;;;;5515526;25;20463;-73
2024/04/11 10:37:46;;;;;;;23.70;22.30;;;;;;;;;;5490438;25;20556;-76
2024/04/11 10:40:24;;;;;;;24.27;22.97;;;;;;;;;;5506725;25;20501;-75
2024/04/11 10:45:34;;;;;;;23.10;21.80;;;;;;;;;;5521773;26;20568;-75
2024/04/11 10:48:06;;;;;;;23.90;22.60;;;;;;;;;;5521235;25;20463;-81
2024/04/11 10:50:35;;;;;;;23.23;21.93;;;;;;;;;;5524840;26;20499;-74
2024/04/11 10:53:03;;;;;;;24.03;22.87;;;;;;;;;;5522031;25;21043;-75
2024/04/11 10:55:38;;;;;;;24.10;22.90;;;;;;;;;;5522407;26;20459;-74
2024/04/11 10:58:09;;;;;;;24.97;23.30;;;;;;;;;;5521017;25;20546;-78
2024/04/11 11:03:40;;;;;;;24.17;22.93;;;;;;;;;;5504382;25;20869;-75
2024/04/11 11:06:12;;;;;;;23.50;22.20;;;;;;;;;;5485035;26;20456;-75
2024/04/11 11:08:43;;;;;;;24.00;22.70;;;;;;;;;;5485756;26;20496;-74
2024/04/11 11:11:11;;;;;;;24.23;22.87;;;;;;;;;;5490359;26;20563;-74
2024/04/11 11:13:40;;;;;;;24.77;23.33;;;;;;;;;;5489084;26;20425;-75
2024/04/11 11:16:12;;;;;;;24.60;23.10;;;;;;;;;;5489673;26;20428;-75
2024/04/11 11:18:43;;;;;;;23.53;22.33;;;;;;;;;;5487399;26;20494;-76
2024/04/11 11:21:13;;;;;;;25.10;23.30;;;;;;;;;;5488524;26;20453;-74
2024/04/11 11:23:45;;;;;;;23.47;22.03;;;;;;;;;;5489203;26;20633;-75
2024/04/11 11:26:20;;;;;;;23.73;22.33;;;;;;;;;;5489119;26;20519;-76
2024/04/11 11:28:51;;;;;;;25.03;23.20;;;;;;;;;;5493221;25;20555;-75
2024/04/11 11:31:20;;;;;;;22.90;21.70;;;;;;;;;;5511060;25;20459;-75
2024/04/11 11:33:49;;;;;;;24.57;23.17;;;;;;;;;;5524202;26;20439;-75
2024/04/11 11:36:17;;;;;;;25.87;24.17;;;;;;;;;;5524873;26;20499;-75
2024/04/11 11:38:48;;;;;;;24.07;22.93;;;;;;;;;;5523047;25;20482;-75
2024/04/11 11:41:17;;;;;;;23.30;22.10;;;;;;;;;;5523818;25;20460;-75
2024/04/11 11:43:46;;;;;;;23.53;22.43;;;;;;;;;;5524432;26;20454;-76
2024/04/11 11:46:26;;;;;;;22.50;21.50;;;;;;;;;;5524672;25;20479;-75
2024/04/11 11:48:55;;;;;;;24.60;22.67;;;;;;;;;;5487262;26;20523;-75
2024/04/11 11:51:28;;;;;;;24.13;22.90;;;;;;;;;;5487321;26;20821;-76
2024/04/11 11:54:00;;;;;;;23.03;21.67;;;;;;;;;;5488353;26;20468;-75
2024/04/11 11:56:32;;;;;;;22.97;21.67;;;;;;;;;;5487913;26;20561;-74
2024/04/11 11:59:02;;;;;;;21.93;20.83;;;;;;;;;;5492220;26;21237;-76
2024/04/11 12:01:31;;;;;;;21.90;20.70;;;;;;;;;;5524975;25;20439;-76
2024/04/11 12:04:00;;;;;;;23.17;21.97;;;;;;;;;;5524524;25;20989;-75
2024/04/11 12:06:33;;;;;;;22.60;21.40;;;;;;;;;;5525144;25;20803;-75
2024/04/11 12:09:09;;;;;;;23.97;22.40;;;;;;;;;;5524096;26;20427;-75
2024/04/11 12:11:49;;;;;;;23.77;22.40;;;;;;;;;;5524081;25;21031;-75
2024/04/11 12:14:28;;;;;;;23.33;22.13;;;;;;;;;;5524012;25;21167;-76
2024/04/11 12:16:56;;;;;;;23.20;22.10;;;;;;;;;;5524674;26;20487;-75
2024/04/11 12:19:28;;;;;;;24.90;23.40;;;;;;;;;;5523448;26;20509;-78
2024/04/11 12:21:54;;;;;;;26.93;24.97;;;;;;;;;;5527011;25;20455;-77
2024/04/11 12:24:24;;;;;;;24.13;22.93;;;;;;;;;;5497670;25;20531;-78
2024/04/11 12:26:53;;;;;;;25.13;23.63;;;;;;;;;;5519607;26;21136;-78
2024/04/11 12:29:22;;;;;;;25.07;23.87;;;;;;;;;;5490218;26;20491;-75
2024/04/11 12:31:50;;;;;;;24.87;23.47;;;;;;;;;;5490105;26;20528;-77
2024/04/11 12:34:19;;;;;;;24.50;23.20;;;;;;;;;;5490234;26;20519;-78
2024/04/11 12:36:56;;;;;;;25.93;24.63;;;;;;;;;;5515233;26;20782;-78
2024/04/11 12:39:32;;;;;;;24.83;23.20;;;;;;;;;;5510994;25;20468;-74
2024/04/11 12:42:01;;;;;;;25.40;24.00;;;;;;;;;;5515464;25;20795;-74
2024/04/11 12:44:35;;;;;;;25.43;24.07;;;;;;;;;;5519347;26;20497;-74
2024/04/11 12:47:13;;;;;;;25.47;24.07;;;;;;;;;;5524461;25;20570;-75
2024/04/11 12:49:47;;;;;;;26.33;24.77;;;;;;;;;;5523127;25;20511;-74
2024/04/11 12:52:13;;;;;;;24.13;22.90;;;;;;;;;;5524003;25;20458;-75
2024/04/11 12:54:41;;;;;;;24.53;23.23;;;;;;;;;;5521310;25;21180;-74
2024/04/11 12:57:10;;;;;;;25.70;24.20;;;;;;;;;;5501697;25;20469;-75
2024/04/11 12:59:45;;;;;;;24.47;23.17;;;;;;;;;;5498295;26;20523;-74
2024/04/11 13:02:19;;;;;;;25.60;24.10;;;;;;;;;;5507632;26;20962;-74
2024/04/11 13:04:49;;;;;;;24.40;23.30;;;;;;;;;;5524962;26;20619;-74
2024/04/11 13:07:19;;;;;;;26.13;24.63;;;;;;;;;;5526163;26;20598;-74
2024/04/11 13:10:07;;;;;;;25.70;24.13;;;;;;;;;;5527951;26;20475;-80
2024/04/11 13:12:36;;;;;;;25.30;23.70;;;;;;;;;;5510327;25;20540;-75
2024/04/11 13:15:12;;;;;;;25.87;23.63;;;;;;;;;;5522490;25;20463;-74
2024/04/11 13:17:41;;;;;;;25.60;24.00;;;;;;;;;;5520984;26;20458;-73
2024/04/11 13:20:16;;;;;;;24.90;23.50;;;;;;;;;;5492950;26;20467;-75
2024/04/11 13:22:48;;;;;;;25.30;23.67;;;;;;;;;;5524702;25;20513;-73
2024/04/11 13:25:20;;;;;;;25.77;24.30;;;;;;;;;;5517072;25;20518;-75
2024/04/11 13:27:52;;;;;;;24.50;23.00;;;;;;;;;;5524235;25;20503;-73
2024/04/11 13:30:21;;;;;;;25.57;24.00;;;;;;;;;;5521580;26;20608;-75
2024/04/11 13:32:48;;;;;;;24.83;23.63;;;;;;;;;;5522785;25;20439;-74
2024/04/11 13:35:36;;;;;;;26.03;24.40;;;;;;;;;;5524282;26;20427;-75
2024/04/11 13:38:12;;;;;;;25.47;23.93;;;;;;;;;;5523634;25;20800;-74
2024/04/11 13:43:28;;;;;;;26.40;24.40;;;;;;;;;;5520819;25;20427;-74
2024/04/11 13:46:06;;;;;;;25.10;23.87;;;;;;;;;;5512655;26;20560;-73
2024/04/11 13:48:36;;;;;;;25.57;23.97;;;;;;;;;;5523876;25;21226;-75
2024/04/11 13:51:09;;;;;;;26.90;25.50;;;;;;;;;;5523562;25;20556;-74
2024/04/11 13:53:44;;;;;;;24.53;23.23;;;;;;;;;;5521456;26;20436;-74
2024/04/11 13:56:13;;;;;;;24.77;23.00;;;;;;;;;;5512533;25;20574;-74
2024/04/11 13:58:48;;;;;;;23.83;22.13;;;;;;;;;;5515227;25;20520;-72
2024/04/11 14:01:27;;;;;;;24.90;23.23;;;;;;;;;;5523127;25;20471;-75
2024/04/11 14:03:56;;;;;;;24.63;23.30;;;;;;;;;;5522734;26;20431;-75
2024/04/11 14:06:28;;;;;;;24.20;22.63;;;;;;;;;;5523690;25;20443;-74
2024/04/11 14:08:57;;;;;;;26.77;24.90;;;;;;;;;;5521057;26;20466;-75
2024/04/11 14:11:25;;;;;;;23.23;21.97;;;;;;;;;;5521658;25;20483;-74
2024/04/11 14:13:56;;;;;;;23.50;22.10;;;;;;;;;;5524773;26;20483;-73
2024/04/11 14:16:46;;;;;;;24.40;23.00;;;;;;;;;;5522094;26;20467;-74
2024/04/11 14:19:16;;;;;;;24.00;22.67;;;;;;;;;;5522952;25;20522;-73
2024/04/11 14:21:53;;;;;;;24.63;22.90;;;;;;;;;;5521415;25;20515;-73
2024/04/11 14:24:34;;;;;;;23.50;22.20;;;;;;;;;;5515620;25;21769;-74
2024/04/11 14:27:05;;;;;;;22.10;20.80;;;;;;;;;;5511193;26;20538;-73
2024/04/11 14:29:37;;;;;;;24.33;22.77;;;;;;;;;;5519814;26;20470;-73
2024/04/11 14:32:03;;;;;;;24.30;22.70;;;;;;;;;;5524553;25;20494;-74
2024/04/11 14:37:46;;;;;;;24.40;23.10;;;;;;;;;;5496171;26;20473;-73
2024/04/11 14:40:12;;;;;;;23.83;21.90;;;;;;;;;;5485397;26;20792;-74
2024/04/11 14:42:45;;;;;;;23.37;21.97;;;;;;;;;;5488489;26;20475;-73
2024/04/11 14:45:14;;;;;;;23.30;21.90;;;;;;;;;;5490399;26;20475;-76
2024/04/11 14:47:43;;;;;;;23.00;21.63;;;;;;;;;;5495348;26;20569;-74